sensor_id;sensor_type;location;lat;lon;timestamp;P1;durP1;ratioP1;P2;durP2;ratioP2
8349;SDS011;60699;48.946;8.412;2023-04-08T00:00:03;9.65;;;7.00;;
8349;SDS011;60699;48.946;8.412;2023-04-08T00:02:33;6.47;;;5.88;;
8349;SDS011;60699;48.946;8.412;2023-04-08T00:05:00;7.47;;;6.78;;
8349;SDS011;60699;48.946;8.412;2023-04-08T00:07:28;7.60;;;6.43;;
8349;SDS011;60699;48.946;8.412;2023-04-08T00:09:55;7.07;;;6.38;;
8349;SDS011;60699;48.946;8.412;2023-04-08T00:12:22;7.22;;;6.53;;
8349;SDS011;60699;48.946;8.412;2023-04-08T00:14:49;10.13;;;6.97;;
8349;SDS011;60699;48.946;8.412;2023-04-08T00:17:16;8.20;;;7.05;;
8349;SDS011;60699;48.946;8.412;2023-04-08T00:19:44;9.10;;;7.03;;
8349;SDS011;60699;48.946;8.412;2023-04-08T00:22:11;8.73;;;6.65;;
8349;SDS011;60699;48.946;8.412;2023-04-08T00:24:38;9.10;;;6.88;;
8349;SDS011;60699;48.946;8.412;2023-04-08T00:27:05;8.20;;;6.70;;
8349;SDS011;60699;48.946;8.412;2023-04-08T00:29:32;8.10;;;7.20;;
8349;SDS011;60699;48.946;8.412;2023-04-08T00:31:59;7.78;;;7.00;;
8349;SDS011;60699;48.946;8.412;2023-04-08T00:34:27;9.70;;;6.70;;
8349;SDS011;60699;48.946;8.412;2023-04-08T00:36:55;7.88;;;6.75;;
8349;SDS011;60699;48.946;8.412;2023-04-08T00:39:22;8.80;;;7.38;;
8349;SDS011;60699;48.946;8.412;2023-04-08T00:41:49;8.38;;;6.72;;
8349;SDS011;60699;48.946;8.412;2023-04-08T00:44:16;8.50;;;6.90;;
8349;SDS011;60699;48.946;8.412;2023-04-08T00:46:43;7.38;;;6.65;;
8349;SDS011;60699;48.946;8.412;2023-04-08T00:49:11;9.65;;;6.80;;
8349;SDS011;60699;48.946;8.412;2023-04-08T00:51:38;8.45;;;7.65;;
8349;SDS011;60699;48.946;8.412;2023-04-08T00:54:07;9.80;;;7.30;;
8349;SDS011;60699;48.946;8.412;2023-04-08T00:56:34;11.07;;;8.05;;
8349;SDS011;60699;48.946;8.412;2023-04-08T00:59:02;11.15;;;7.55;;
8349;SDS011;60699;48.946;8.412;2023-04-08T01:01:31;13.43;;;7.40;;
8349;SDS011;60699;48.946;8.412;2023-04-08T01:04:01;10.93;;;7.57;;
8349;SDS011;60699;48.946;8.412;2023-04-08T01:06:34;9.73;;;7.65;;
8349;SDS011;60699;48.946;8.412;2023-04-08T01:09:08;12.85;;;8.63;;
8349;SDS011;60699;48.946;8.412;2023-04-08T01:11:36;12.15;;;7.68;;
8349;SDS011;60699;48.946;8.412;2023-04-08T01:14:04;10.35;;;7.30;;
8349;SDS011;60699;48.946;8.412;2023-04-08T01:16:34;10.45;;;7.80;;
8349;SDS011;60699;48.946;8.412;2023-04-08T01:19:01;9.88;;;7.47;;
8349;SDS011;60699;48.946;8.412;2023-04-08T01:21:29;16.65;;;9.93;;
8349;SDS011;60699;48.946;8.412;2023-04-08T01:23:58;12.25;;;9.85;;
8349;SDS011;60699;48.946;8.412;2023-04-08T01:26:28;11.38;;;8.50;;
8349;SDS011;60699;48.946;8.412;2023-04-08T01:28:57;11.68;;;7.53;;
8349;SDS011;60699;48.946;8.412;2023-04-08T01:31:25;12.63;;;8.57;;
8349;SDS011;60699;48.946;8.412;2023-04-08T01:33:52;10.65;;;8.18;;
8349;SDS011;60699;48.946;8.412;2023-04-08T01:36:20;11.48;;;8.85;;
8349;SDS011;60699;48.946;8.412;2023-04-08T01:38:47;11.10;;;8.35;;
8349;SDS011;60699;48.946;8.412;2023-04-08T01:41:15;10.00;;;7.70;;
8349;SDS011;60699;48.946;8.412;2023-04-08T01:43:44;12.20;;;8.35;;
8349;SDS011;60699;48.946;8.412;2023-04-08T01:46:11;10.25;;;9.07;;
8349;SDS011;60699;48.946;8.412;2023-04-08T01:48:39;11.05;;;7.72;;
8349;SDS011;60699;48.946;8.412;2023-04-08T01:51:06;9.50;;;7.60;;
8349;SDS011;60699;48.946;8.412;2023-04-08T01:53:34;11.95;;;8.30;;
8349;SDS011;60699;48.946;8.412;2023-04-08T01:56:03;11.68;;;8.45;;
8349;SDS011;60699;48.946;8.412;2023-04-08T01:58:35;9.25;;;8.30;;
8349;SDS011;60699;48.946;8.412;2023-04-08T02:01:05;13.82;;;10.05;;
8349;SDS011;60699;48.946;8.412;2023-04-08T02:03:32;11.18;;;8.02;;
8349;SDS011;60699;48.946;8.412;2023-04-08T02:06:00;12.25;;;8.35;;
8349;SDS011;60699;48.946;8.412;2023-04-08T02:08:27;10.00;;;8.00;;
8349;SDS011;60699;48.946;8.412;2023-04-08T02:10:54;10.18;;;8.55;;
8349;SDS011;60699;48.946;8.412;2023-04-08T02:13:21;11.52;;;8.63;;
8349;SDS011;60699;48.946;8.412;2023-04-08T02:15:50;9.45;;;8.38;;
8349;SDS011;60699;48.946;8.412;2023-04-08T02:18:21;11.55;;;8.75;;
8349;SDS011;60699;48.946;8.412;2023-04-08T02:20:52;11.40;;;8.13;;
8349;SDS011;60699;48.946;8.412;2023-04-08T02:23:23;10.65;;;8.88;;
8349;SDS011;60699;48.946;8.412;2023-04-08T02:25:51;13.65;;;9.45;;
8349;SDS011;60699;48.946;8.412;2023-04-08T02:28:18;12.52;;;9.10;;
8349;SDS011;60699;48.946;8.412;2023-04-08T02:30:47;11.05;;;8.07;;
8349;SDS011;60699;48.946;8.412;2023-04-08T02:33:15;12.55;;;8.98;;
8349;SDS011;60699;48.946;8.412;2023-04-08T02:35:45;12.52;;;9.07;;
8349;SDS011;60699;48.946;8.412;2023-04-08T02:38:13;12.25;;;9.98;;
8349;SDS011;60699;48.946;8.412;2023-04-08T02:40:40;13.02;;;9.00;;
8349;SDS011;60699;48.946;8.412;2023-04-08T02:43:07;9.57;;;7.97;;
8349;SDS011;60699;48.946;8.412;2023-04-08T02:45:37;13.10;;;8.93;;
8349;SDS011;60699;48.946;8.412;2023-04-08T02:48:04;11.40;;;9.15;;
8349;SDS011;60699;48.946;8.412;2023-04-08T02:50:31;10.15;;;8.57;;
8349;SDS011;60699;48.946;8.412;2023-04-08T02:53:00;11.05;;;8.77;;
8349;SDS011;60699;48.946;8.412;2023-04-08T02:55:27;11.80;;;8.77;;
8349;SDS011;60699;48.946;8.412;2023-04-08T02:57:54;11.88;;;8.55;;
8349;SDS011;60699;48.946;8.412;2023-04-08T03:00:21;12.70;;;10.02;;
8349;SDS011;60699;48.946;8.412;2023-04-08T03:02:48;12.95;;;8.93;;
8349;SDS011;60699;48.946;8.412;2023-04-08T03:05:15;11.55;;;8.82;;
8349;SDS011;60699;48.946;8.412;2023-04-08T03:07:42;11.50;;;9.35;;
8349;SDS011;60699;48.946;8.412;2023-04-08T03:10:10;10.70;;;8.82;;
8349;SDS011;60699;48.946;8.412;2023-04-08T03:12:37;11.95;;;8.45;;
8349;SDS011;60699;48.946;8.412;2023-04-08T03:15:05;12.93;;;8.73;;
8349;SDS011;60699;48.946;8.412;2023-04-08T03:17:32;13.45;;;9.40;;
8349;SDS011;60699;48.946;8.412;2023-04-08T03:19:59;10.55;;;8.93;;
8349;SDS011;60699;48.946;8.412;2023-04-08T03:22:28;12.15;;;8.55;;
8349;SDS011;60699;48.946;8.412;2023-04-08T03:24:55;11.20;;;10.00;;
8349;SDS011;60699;48.946;8.412;2023-04-08T03:27:24;12.45;;;10.02;;
8349;SDS011;60699;48.946;8.412;2023-04-08T03:29:51;12.65;;;9.45;;
8349;SDS011;60699;48.946;8.412;2023-04-08T03:32:18;11.10;;;9.27;;
8349;SDS011;60699;48.946;8.412;2023-04-08T03:34:45;13.05;;;9.65;;
8349;SDS011;60699;48.946;8.412;2023-04-08T03:37:15;13.95;;;9.80;;
8349;SDS011;60699;48.946;8.412;2023-04-08T03:39:42;11.90;;;10.60;;
8349;SDS011;60699;48.946;8.412;2023-04-08T03:42:09;18.60;;;12.10;;
8349;SDS011;60699;48.946;8.412;2023-04-08T03:44:37;16.25;;;10.15;;
8349;SDS011;60699;48.946;8.412;2023-04-08T03:47:04;11.85;;;9.70;;
8349;SDS011;60699;48.946;8.412;2023-04-08T03:49:31;14.18;;;10.25;;
8349;SDS011;60699;48.946;8.412;2023-04-08T03:51:58;14.57;;;9.88;;
8349;SDS011;60699;48.946;8.412;2023-04-08T03:54:25;13.73;;;10.00;;
8349;SDS011;60699;48.946;8.412;2023-04-08T03:56:52;13.68;;;11.68;;
8349;SDS011;60699;48.946;8.412;2023-04-08T03:59:19;17.30;;;13.05;;
8349;SDS011;60699;48.946;8.412;2023-04-08T04:01:48;11.65;;;9.70;;
8349;SDS011;60699;48.946;8.412;2023-04-08T04:04:17;15.25;;;10.85;;
8349;SDS011;60699;48.946;8.412;2023-04-08T04:06:44;17.58;;;12.48;;
8349;SDS011;60699;48.946;8.412;2023-04-08T04:09:11;14.32;;;10.23;;
8349;SDS011;60699;48.946;8.412;2023-04-08T04:11:39;16.27;;;13.02;;
8349;SDS011;60699;48.946;8.412;2023-04-08T04:14:06;16.90;;;11.00;;
8349;SDS011;60699;48.946;8.412;2023-04-08T04:16:33;13.45;;;10.48;;
8349;SDS011;60699;48.946;8.412;2023-04-08T04:19:01;16.25;;;11.13;;
8349;SDS011;60699;48.946;8.412;2023-04-08T04:21:28;14.43;;;10.68;;
8349;SDS011;60699;48.946;8.412;2023-04-08T04:23:55;16.02;;;11.10;;
8349;SDS011;60699;48.946;8.412;2023-04-08T04:26:22;18.15;;;10.80;;
8349;SDS011;60699;48.946;8.412;2023-04-08T04:28:49;15.30;;;10.70;;
8349;SDS011;60699;48.946;8.412;2023-04-08T04:31:17;17.02;;;12.10;;
8349;SDS011;60699;48.946;8.412;2023-04-08T04:33:44;14.50;;;10.48;;
8349;SDS011;60699;48.946;8.412;2023-04-08T04:36:13;15.80;;;9.98;;
8349;SDS011;60699;48.946;8.412;2023-04-08T04:38:40;13.70;;;10.52;;
8349;SDS011;60699;48.946;8.412;2023-04-08T04:41:07;17.88;;;11.35;;
8349;SDS011;60699;48.946;8.412;2023-04-08T04:43:35;17.73;;;11.93;;
8349;SDS011;60699;48.946;8.412;2023-04-08T04:46:02;14.45;;;11.30;;
8349;SDS011;60699;48.946;8.412;2023-04-08T04:48:31;16.50;;;11.63;;
8349;SDS011;60699;48.946;8.412;2023-04-08T04:50:58;15.02;;;11.05;;
8349;SDS011;60699;48.946;8.412;2023-04-08T04:53:28;16.20;;;11.65;;
8349;SDS011;60699;48.946;8.412;2023-04-08T04:55:55;19.30;;;12.48;;
8349;SDS011;60699;48.946;8.412;2023-04-08T04:58:22;15.55;;;11.63;;
8349;SDS011;60699;48.946;8.412;2023-04-08T05:00:49;16.33;;;10.85;;
8349;SDS011;60699;48.946;8.412;2023-04-08T05:03:16;15.45;;;11.57;;
8349;SDS011;60699;48.946;8.412;2023-04-08T05:05:43;14.82;;;11.00;;
8349;SDS011;60699;48.946;8.412;2023-04-08T05:08:10;16.40;;;10.45;;
8349;SDS011;60699;48.946;8.412;2023-04-08T05:10:40;18.85;;;12.15;;
8349;SDS011;60699;48.946;8.412;2023-04-08T05:13:07;14.30;;;10.68;;
8349;SDS011;60699;48.946;8.412;2023-04-08T05:15:34;13.05;;;9.85;;
8349;SDS011;60699;48.946;8.412;2023-04-08T05:18:01;17.30;;;12.02;;
8349;SDS011;60699;48.946;8.412;2023-04-08T05:20:28;16.65;;;11.55;;
8349;SDS011;60699;48.946;8.412;2023-04-08T05:22:55;13.32;;;9.85;;
8349;SDS011;60699;48.946;8.412;2023-04-08T05:25:22;17.10;;;11.15;;
8349;SDS011;60699;48.946;8.412;2023-04-08T05:27:51;16.27;;;10.82;;
8349;SDS011;60699;48.946;8.412;2023-04-08T05:30:18;16.52;;;10.52;;
8349;SDS011;60699;48.946;8.412;2023-04-08T05:32:45;16.10;;;10.43;;
8349;SDS011;60699;48.946;8.412;2023-04-08T05:35:12;16.42;;;11.00;;
8349;SDS011;60699;48.946;8.412;2023-04-08T05:37:39;14.77;;;10.40;;
8349;SDS011;60699;48.946;8.412;2023-04-08T05:40:06;14.75;;;10.95;;
8349;SDS011;60699;48.946;8.412;2023-04-08T05:42:33;11.13;;;9.45;;
8349;SDS011;60699;48.946;8.412;2023-04-08T05:45:02;15.15;;;10.60;;
8349;SDS011;60699;48.946;8.412;2023-04-08T05:47:29;19.25;;;11.70;;
8349;SDS011;60699;48.946;8.412;2023-04-08T05:49:56;17.60;;;11.15;;
8349;SDS011;60699;48.946;8.412;2023-04-08T05:52:23;15.02;;;10.10;;
8349;SDS011;60699;48.946;8.412;2023-04-08T05:54:50;14.80;;;11.27;;
8349;SDS011;60699;48.946;8.412;2023-04-08T05:57:17;16.30;;;12.20;;
8349;SDS011;60699;48.946;8.412;2023-04-08T05:59:45;26.45;;;12.68;;
8349;SDS011;60699;48.946;8.412;2023-04-08T06:02:13;13.75;;;10.90;;
8349;SDS011;60699;48.946;8.412;2023-04-08T06:04:40;14.93;;;10.68;;
8349;SDS011;60699;48.946;8.412;2023-04-08T06:07:07;17.08;;;11.23;;
8349;SDS011;60699;48.946;8.412;2023-04-08T06:09:34;16.92;;;11.48;;
8349;SDS011;60699;48.946;8.412;2023-04-08T06:12:02;17.42;;;11.40;;
8349;SDS011;60699;48.946;8.412;2023-04-08T06:14:29;16.80;;;11.35;;
8349;SDS011;60699;48.946;8.412;2023-04-08T06:16:56;17.05;;;11.48;;
8349;SDS011;60699;48.946;8.412;2023-04-08T06:19:24;18.20;;;11.35;;
8349;SDS011;60699;48.946;8.412;2023-04-08T06:21:51;16.50;;;10.55;;
8349;SDS011;60699;48.946;8.412;2023-04-08T06:24:22;17.23;;;11.80;;
8349;SDS011;60699;48.946;8.412;2023-04-08T06:26:49;16.05;;;11.50;;
8349;SDS011;60699;48.946;8.412;2023-04-08T06:29:17;18.17;;;12.50;;
8349;SDS011;60699;48.946;8.412;2023-04-08T06:31:44;16.25;;;11.15;;
8349;SDS011;60699;48.946;8.412;2023-04-08T06:34:11;18.88;;;11.13;;
8349;SDS011;60699;48.946;8.412;2023-04-08T06:36:39;14.95;;;11.30;;
8349;SDS011;60699;48.946;8.412;2023-04-08T06:39:06;16.75;;;10.43;;
8349;SDS011;60699;48.946;8.412;2023-04-08T06:41:34;19.73;;;11.38;;
8349;SDS011;60699;48.946;8.412;2023-04-08T06:44:01;17.13;;;10.75;;
8349;SDS011;60699;48.946;8.412;2023-04-08T06:46:28;14.05;;;10.73;;
8349;SDS011;60699;48.946;8.412;2023-04-08T06:48:55;14.80;;;11.40;;
8349;SDS011;60699;48.946;8.412;2023-04-08T06:51:22;17.45;;;11.77;;
8349;SDS011;60699;48.946;8.412;2023-04-08T06:53:51;13.95;;;10.93;;
8349;SDS011;60699;48.946;8.412;2023-04-08T06:56:18;18.23;;;12.38;;
8349;SDS011;60699;48.946;8.412;2023-04-08T06:58:46;13.25;;;9.25;;
8349;SDS011;60699;48.946;8.412;2023-04-08T07:01:13;14.48;;;8.90;;
8349;SDS011;60699;48.946;8.412;2023-04-08T07:03:41;15.73;;;8.90;;
8349;SDS011;60699;48.946;8.412;2023-04-08T07:06:08;17.25;;;9.50;;
8349;SDS011;60699;48.946;8.412;2023-04-08T07:08:35;17.25;;;9.80;;
8349;SDS011;60699;48.946;8.412;2023-04-08T07:11:04;16.08;;;10.27;;
8349;SDS011;60699;48.946;8.412;2023-04-08T07:13:31;13.30;;;8.85;;
8349;SDS011;60699;48.946;8.412;2023-04-08T07:15:58;16.50;;;9.15;;
8349;SDS011;60699;48.946;8.412;2023-04-08T07:18:25;20.73;;;9.95;;
8349;SDS011;60699;48.946;8.412;2023-04-08T07:20:52;17.80;;;9.13;;
8349;SDS011;60699;48.946;8.412;2023-04-08T07:23:19;14.60;;;9.18;;
8349;SDS011;60699;48.946;8.412;2023-04-08T07:25:46;17.30;;;10.52;;
8349;SDS011;60699;48.946;8.412;2023-04-08T07:28:15;18.20;;;10.43;;
8349;SDS011;60699;48.946;8.412;2023-04-08T07:30:42;16.27;;;8.60;;
8349;SDS011;60699;48.946;8.412;2023-04-08T07:33:09;15.93;;;9.23;;
8349;SDS011;60699;48.946;8.412;2023-04-08T07:35:36;14.68;;;7.75;;
8349;SDS011;60699;48.946;8.412;2023-04-08T07:38:03;15.45;;;8.00;;
8349;SDS011;60699;48.946;8.412;2023-04-08T07:40:35;13.05;;;8.05;;
8349;SDS011;60699;48.946;8.412;2023-04-08T07:43:02;15.30;;;9.57;;
8349;SDS011;60699;48.946;8.412;2023-04-08T07:45:30;19.50;;;10.55;;
8349;SDS011;60699;48.946;8.412;2023-04-08T07:47:57;18.20;;;9.80;;
8349;SDS011;60699;48.946;8.412;2023-04-08T07:50:24;16.92;;;9.25;;
8349;SDS011;60699;48.946;8.412;2023-04-08T07:52:51;11.60;;;8.15;;
8349;SDS011;60699;48.946;8.412;2023-04-08T07:55:18;13.80;;;8.65;;
8349;SDS011;60699;48.946;8.412;2023-04-08T07:57:45;13.70;;;8.18;;
8349;SDS011;60699;48.946;8.412;2023-04-08T08:00:12;11.00;;;8.23;;
8349;SDS011;60699;48.946;8.412;2023-04-08T08:02:46;12.30;;;8.80;;
8349;SDS011;60699;48.946;8.412;2023-04-08T08:05:13;10.90;;;8.20;;
8349;SDS011;60699;48.946;8.412;2023-04-08T08:07:40;9.98;;;7.82;;
8349;SDS011;60699;48.946;8.412;2023-04-08T08:10:07;13.57;;;8.82;;
8349;SDS011;60699;48.946;8.412;2023-04-08T08:12:35;10.52;;;7.60;;
8349;SDS011;60699;48.946;8.412;2023-04-08T08:15:02;11.43;;;7.60;;
8349;SDS011;60699;48.946;8.412;2023-04-08T08:17:29;11.30;;;8.27;;
8349;SDS011;60699;48.946;8.412;2023-04-08T08:19:58;9.20;;;7.00;;
8349;SDS011;60699;48.946;8.412;2023-04-08T08:22:26;12.68;;;8.68;;
8349;SDS011;60699;48.946;8.412;2023-04-08T08:24:56;12.07;;;8.43;;
8349;SDS011;60699;48.946;8.412;2023-04-08T08:27:23;14.73;;;8.93;;
8349;SDS011;60699;48.946;8.412;2023-04-08T08:29:50;15.02;;;9.20;;
8349;SDS011;60699;48.946;8.412;2023-04-08T08:32:17;11.77;;;7.90;;
8349;SDS011;60699;48.946;8.412;2023-04-08T08:34:44;10.65;;;8.18;;
8349;SDS011;60699;48.946;8.412;2023-04-08T08:37:13;12.85;;;8.50;;
8349;SDS011;60699;48.946;8.412;2023-04-08T08:39:40;10.85;;;8.20;;
8349;SDS011;60699;48.946;8.412;2023-04-08T08:42:16;12.07;;;8.45;;
8349;SDS011;60699;48.946;8.412;2023-04-08T08:44:44;11.80;;;8.82;;
8349;SDS011;60699;48.946;8.412;2023-04-08T08:47:11;10.85;;;8.27;;
8349;SDS011;60699;48.946;8.412;2023-04-08T08:49:38;8.90;;;8.00;;
8349;SDS011;60699;48.946;8.412;2023-04-08T08:52:05;12.82;;;9.82;;
8349;SDS011;60699;48.946;8.412;2023-04-08T08:54:33;12.23;;;8.98;;
8349;SDS011;60699;48.946;8.412;2023-04-08T08:57:00;14.23;;;9.80;;
8349;SDS011;60699;48.946;8.412;2023-04-08T08:59:28;16.17;;;9.55;;
8349;SDS011;60699;48.946;8.412;2023-04-08T09:01:55;12.55;;;8.95;;
8349;SDS011;60699;48.946;8.412;2023-04-08T09:04:22;11.85;;;9.60;;
8349;SDS011;60699;48.946;8.412;2023-04-08T09:06:49;11.50;;;9.48;;
8349;SDS011;60699;48.946;8.412;2023-04-08T09:09:34;11.85;;;9.57;;
8349;SDS011;60699;48.946;8.412;2023-04-08T09:12:13;13.57;;;9.13;;
8349;SDS011;60699;48.946;8.412;2023-04-08T09:14:40;14.07;;;8.98;;
8349;SDS011;60699;48.946;8.412;2023-04-08T09:17:07;12.82;;;10.40;;
8349;SDS011;60699;48.946;8.412;2023-04-08T09:19:35;15.57;;;10.20;;
8349;SDS011;60699;48.946;8.412;2023-04-08T09:22:05;13.57;;;10.27;;
8349;SDS011;60699;48.946;8.412;2023-04-08T09:24:34;13.32;;;10.00;;
8349;SDS011;60699;48.946;8.412;2023-04-08T09:27:02;10.02;;;8.63;;
8349;SDS011;60699;48.946;8.412;2023-04-08T09:29:29;11.50;;;9.63;;
8349;SDS011;60699;48.946;8.412;2023-04-08T09:31:57;12.85;;;10.57;;
8349;SDS011;60699;48.946;8.412;2023-04-08T09:34:25;11.50;;;9.75;;
8349;SDS011;60699;48.946;8.412;2023-04-08T09:36:52;12.30;;;9.13;;
8349;SDS011;60699;48.946;8.412;2023-04-08T09:39:19;13.50;;;10.43;;
8349;SDS011;60699;48.946;8.412;2023-04-08T09:41:48;10.38;;;9.40;;
8349;SDS011;60699;48.946;8.412;2023-04-08T09:44:16;11.55;;;9.35;;
8349;SDS011;60699;48.946;8.412;2023-04-08T09:46:48;13.60;;;9.27;;
8349;SDS011;60699;48.946;8.412;2023-04-08T09:49:18;12.48;;;9.40;;
8349;SDS011;60699;48.946;8.412;2023-04-08T09:51:49;13.32;;;9.35;;
8349;SDS011;60699;48.946;8.412;2023-04-08T09:54:21;11.45;;;8.60;;
8349;SDS011;60699;48.946;8.412;2023-04-08T09:56:53;13.20;;;8.07;;
8349;SDS011;60699;48.946;8.412;2023-04-08T09:59:27;12.70;;;9.68;;
8349;SDS011;60699;48.946;8.412;2023-04-08T10:01:57;10.25;;;8.80;;
8349;SDS011;60699;48.946;8.412;2023-04-08T10:04:27;10.15;;;8.93;;
8349;SDS011;60699;48.946;8.412;2023-04-08T10:06:56;10.15;;;8.57;;
8349;SDS011;60699;48.946;8.412;2023-04-08T10:09:23;11.60;;;9.98;;
8349;SDS011;60699;48.946;8.412;2023-04-08T10:11:52;11.63;;;9.00;;
8349;SDS011;60699;48.946;8.412;2023-04-08T10:14:19;10.88;;;9.77;;
8349;SDS011;60699;48.946;8.412;2023-04-08T10:16:46;9.38;;;8.38;;
8349;SDS011;60699;48.946;8.412;2023-04-08T10:22:00;10.68;;;8.48;;
8349;SDS011;60699;48.946;8.412;2023-04-08T10:24:26;12.43;;;10.30;;
8349;SDS011;60699;48.946;8.412;2023-04-08T10:26:55;11.52;;;8.80;;
8349;SDS011;60699;48.946;8.412;2023-04-08T10:29:31;11.77;;;9.35;;
8349;SDS011;60699;48.946;8.412;2023-04-08T10:31:59;11.68;;;9.45;;
8349;SDS011;60699;48.946;8.412;2023-04-08T10:34:26;11.40;;;8.55;;
8349;SDS011;60699;48.946;8.412;2023-04-08T10:36:54;12.05;;;9.30;;
8349;SDS011;60699;48.946;8.412;2023-04-08T10:39:23;11.40;;;9.32;;
8349;SDS011;60699;48.946;8.412;2023-04-08T10:41:51;12.35;;;9.63;;
8349;SDS011;60699;48.946;8.412;2023-04-08T10:44:19;11.88;;;9.68;;
8349;SDS011;60699;48.946;8.412;2023-04-08T10:46:47;12.07;;;8.80;;
8349;SDS011;60699;48.946;8.412;2023-04-08T10:49:15;13.27;;;9.60;;
8349;SDS011;60699;48.946;8.412;2023-04-08T10:51:42;11.43;;;10.20;;
8349;SDS011;60699;48.946;8.412;2023-04-08T10:54:10;10.75;;;8.93;;
8349;SDS011;60699;48.946;8.412;2023-04-08T10:56:42;10.95;;;9.38;;
8349;SDS011;60699;48.946;8.412;2023-04-08T10:59:10;13.50;;;9.35;;
8349;SDS011;60699;48.946;8.412;2023-04-08T11:01:41;12.48;;;9.27;;
8349;SDS011;60699;48.946;8.412;2023-04-08T11:04:13;14.95;;;9.73;;
8349;SDS011;60699;48.946;8.412;2023-04-08T11:06:41;15.73;;;11.18;;
8349;SDS011;60699;48.946;8.412;2023-04-08T11:09:08;12.02;;;9.30;;
8349;SDS011;60699;48.946;8.412;2023-04-08T11:11:35;11.35;;;8.75;;
8349;SDS011;60699;48.946;8.412;2023-04-08T11:14:02;14.00;;;8.88;;
8349;SDS011;60699;48.946;8.412;2023-04-08T11:16:29;12.02;;;9.23;;
8349;SDS011;60699;48.946;8.412;2023-04-08T11:19:00;10.88;;;9.00;;
8349;SDS011;60699;48.946;8.412;2023-04-08T11:21:27;10.52;;;9.13;;
8349;SDS011;60699;48.946;8.412;2023-04-08T11:23:54;13.18;;;9.07;;
8349;SDS011;60699;48.946;8.412;2023-04-08T11:26:22;10.20;;;9.10;;
8349;SDS011;60699;48.946;8.412;2023-04-08T11:28:49;11.90;;;9.48;;
8349;SDS011;60699;48.946;8.412;2023-04-08T11:31:16;15.52;;;9.80;;
8349;SDS011;60699;48.946;8.412;2023-04-08T11:33:44;10.05;;;9.05;;
8349;SDS011;60699;48.946;8.412;2023-04-08T11:36:13;9.65;;;8.65;;
8349;SDS011;60699;48.946;8.412;2023-04-08T11:38:40;12.75;;;9.80;;
8349;SDS011;60699;48.946;8.412;2023-04-08T11:41:08;10.50;;;9.13;;
8349;SDS011;60699;48.946;8.412;2023-04-08T11:43:35;11.73;;;9.35;;
8349;SDS011;60699;48.946;8.412;2023-04-08T11:46:12;13.13;;;9.27;;
8349;SDS011;60699;48.946;8.412;2023-04-08T11:48:39;13.10;;;9.38;;
8349;SDS011;60699;48.946;8.412;2023-04-08T11:51:07;14.20;;;10.10;;
8349;SDS011;60699;48.946;8.412;2023-04-08T11:53:35;11.90;;;8.05;;
8349;SDS011;60699;48.946;8.412;2023-04-08T11:56:15;11.00;;;8.20;;
8349;SDS011;60699;48.946;8.412;2023-04-08T11:58:42;12.60;;;8.25;;
8349;SDS011;60699;48.946;8.412;2023-04-08T12:01:09;8.23;;;7.43;;
8349;SDS011;60699;48.946;8.412;2023-04-08T12:03:36;9.90;;;8.38;;
8349;SDS011;60699;48.946;8.412;2023-04-08T12:06:04;11.25;;;7.90;;
8349;SDS011;60699;48.946;8.412;2023-04-08T12:08:32;13.45;;;7.80;;
8349;SDS011;60699;48.946;8.412;2023-04-08T12:11:01;9.27;;;8.23;;
8349;SDS011;60699;48.946;8.412;2023-04-08T12:13:28;12.98;;;8.32;;
8349;SDS011;60699;48.946;8.412;2023-04-08T12:15:55;11.55;;;8.02;;
8349;SDS011;60699;48.946;8.412;2023-04-08T12:18:22;10.75;;;8.00;;
8349;SDS011;60699;48.946;8.412;2023-04-08T12:20:49;10.43;;;8.18;;
8349;SDS011;60699;48.946;8.412;2023-04-08T12:23:16;10.20;;;7.80;;
8349;SDS011;60699;48.946;8.412;2023-04-08T12:25:43;15.18;;;10.65;;
8349;SDS011;60699;48.946;8.412;2023-04-08T12:28:11;12.25;;;10.10;;
8349;SDS011;60699;48.946;8.412;2023-04-08T12:30:38;12.73;;;9.13;;
8349;SDS011;60699;48.946;8.412;2023-04-08T12:33:05;12.18;;;8.98;;
8349;SDS011;60699;48.946;8.412;2023-04-08T12:35:32;12.93;;;8.73;;
8349;SDS011;60699;48.946;8.412;2023-04-08T12:37:59;13.30;;;8.88;;
8349;SDS011;60699;48.946;8.412;2023-04-08T12:40:26;12.43;;;8.85;;
8349;SDS011;60699;48.946;8.412;2023-04-08T12:42:53;12.15;;;8.82;;
8349;SDS011;60699;48.946;8.412;2023-04-08T12:45:22;11.18;;;9.02;;
8349;SDS011;60699;48.946;8.412;2023-04-08T12:47:49;11.80;;;9.68;;
8349;SDS011;60699;48.946;8.412;2023-04-08T12:50:16;11.32;;;10.13;;
8349;SDS011;60699;48.946;8.412;2023-04-08T12:52:43;11.32;;;9.85;;
8349;SDS011;60699;48.946;8.412;2023-04-08T12:55:10;12.38;;;9.10;;
8349;SDS011;60699;48.946;8.412;2023-04-08T12:57:37;11.18;;;10.00;;
8349;SDS011;60699;48.946;8.412;2023-04-08T13:00:04;19.95;;;10.07;;
8349;SDS011;60699;48.946;8.412;2023-04-08T13:02:33;12.25;;;9.95;;
8349;SDS011;60699;48.946;8.412;2023-04-08T13:05:00;13.32;;;9.70;;
8349;SDS011;60699;48.946;8.412;2023-04-08T13:07:27;11.82;;;9.80;;
8349;SDS011;60699;48.946;8.412;2023-04-08T13:09:54;10.30;;;8.10;;
8349;SDS011;60699;48.946;8.412;2023-04-08T13:12:21;11.38;;;9.00;;
8349;SDS011;60699;48.946;8.412;2023-04-08T13:14:48;9.57;;;8.05;;
8349;SDS011;60699;48.946;8.412;2023-04-08T13:17:15;11.30;;;8.18;;
8349;SDS011;60699;48.946;8.412;2023-04-08T13:19:43;12.45;;;9.38;;
8349;SDS011;60699;48.946;8.412;2023-04-08T13:22:11;13.43;;;8.05;;
8349;SDS011;60699;48.946;8.412;2023-04-08T13:24:38;12.02;;;8.88;;
8349;SDS011;60699;48.946;8.412;2023-04-08T13:27:06;9.35;;;8.00;;
8349;SDS011;60699;48.946;8.412;2023-04-08T13:29:33;13.77;;;9.85;;
8349;SDS011;60699;48.946;8.412;2023-04-08T13:32:00;10.27;;;8.07;;
8349;SDS011;60699;48.946;8.412;2023-04-08T13:34:27;11.23;;;8.98;;
8349;SDS011;60699;48.946;8.412;2023-04-08T13:36:55;13.55;;;8.07;;
8349;SDS011;60699;48.946;8.412;2023-04-08T13:39:23;10.30;;;8.05;;
8349;SDS011;60699;48.946;8.412;2023-04-08T13:41:50;14.13;;;8.77;;
8349;SDS011;60699;48.946;8.412;2023-04-08T13:44:17;9.32;;;7.60;;
8349;SDS011;60699;48.946;8.412;2023-04-08T13:46:44;15.05;;;8.98;;
8349;SDS011;60699;48.946;8.412;2023-04-08T13:49:11;13.20;;;8.55;;
8349;SDS011;60699;48.946;8.412;2023-04-08T13:51:38;7.72;;;6.65;;
8349;SDS011;60699;48.946;8.412;2023-04-08T13:54:06;10.48;;;7.78;;
8349;SDS011;60699;48.946;8.412;2023-04-08T13:56:33;9.20;;;6.97;;
8349;SDS011;60699;48.946;8.412;2023-04-08T13:59:00;9.45;;;6.78;;
8349;SDS011;60699;48.946;8.412;2023-04-08T14:01:28;8.77;;;7.60;;
8349;SDS011;60699;48.946;8.412;2023-04-08T14:03:55;7.43;;;6.07;;
8349;SDS011;60699;48.946;8.412;2023-04-08T14:06:22;7.28;;;6.57;;
8349;SDS011;60699;48.946;8.412;2023-04-08T14:08:50;6.97;;;6.28;;
8349;SDS011;60699;48.946;8.412;2023-04-08T14:11:18;8.48;;;6.65;;
8349;SDS011;60699;48.946;8.412;2023-04-08T14:13:46;7.93;;;5.38;;
8349;SDS011;60699;48.946;8.412;2023-04-08T14:16:13;7.78;;;6.07;;
8349;SDS011;60699;48.946;8.412;2023-04-08T14:18:40;7.18;;;5.85;;
8349;SDS011;60699;48.946;8.412;2023-04-08T14:21:07;5.97;;;5.07;;
8349;SDS011;60699;48.946;8.412;2023-04-08T14:23:34;8.80;;;6.10;;
8349;SDS011;60699;48.946;8.412;2023-04-08T14:26:01;7.10;;;5.53;;
8349;SDS011;60699;48.946;8.412;2023-04-08T14:28:30;6.25;;;5.55;;
8349;SDS011;60699;48.946;8.412;2023-04-08T14:30:57;6.45;;;5.65;;
8349;SDS011;60699;48.946;8.412;2023-04-08T14:33:24;7.68;;;5.40;;
8349;SDS011;60699;48.946;8.412;2023-04-08T14:35:51;8.95;;;7.25;;
8349;SDS011;60699;48.946;8.412;2023-04-08T14:38:18;7.50;;;6.60;;
8349;SDS011;60699;48.946;8.412;2023-04-08T14:40:45;7.15;;;6.45;;
8349;SDS011;60699;48.946;8.412;2023-04-08T14:43:12;8.77;;;7.25;;
8349;SDS011;60699;48.946;8.412;2023-04-08T14:45:40;8.60;;;6.20;;
8349;SDS011;60699;48.946;8.412;2023-04-08T14:48:08;8.82;;;6.70;;
8349;SDS011;60699;48.946;8.412;2023-04-08T14:50:36;7.75;;;6.95;;